sensor_id;sensor_type;location;lat;lon;timestamp;P1;durP1;ratioP1;P2;durP2;ratioP2
56343;SDS011;42245;42.058;24.700;2024-03-02T05:50:31;50.35;;;20.80;;
56343;SDS011;42245;42.058;24.700;2024-03-02T05:52:57;50.50;;;21.58;;
56343;SDS011;42245;42.058;24.700;2024-03-02T05:55:23;41.80;;;19.08;;
56343;SDS011;42245;42.058;24.700;2024-03-02T05:57:49;50.53;;;21.80;;
56343;SDS011;42245;42.058;24.700;2024-03-02T06:00:28;50.85;;;20.95;;
56343;SDS011;42245;42.058;24.700;2024-03-02T06:02:53;52.17;;;22.77;;
56343;SDS011;42245;42.058;24.700;2024-03-02T06:05:19;48.22;;;22.30;;
56343;SDS011;42245;42.058;24.700;2024-03-02T06:07:45;53.00;;;23.58;;
56343;SDS011;42245;42.058;24.700;2024-03-02T06:10:11;46.70;;;21.10;;
56343;SDS011;42245;42.058;24.700;2024-03-02T06:12:36;49.88;;;21.50;;
56343;SDS011;42245;42.058;24.700;2024-03-02T06:15:02;46.30;;;20.60;;
56343;SDS011;42245;42.058;24.700;2024-03-02T06:17:29;46.50;;;20.35;;
56343;SDS011;42245;42.058;24.700;2024-03-02T06:19:55;49.55;;;23.83;;
56343;SDS011;42245;42.058;24.700;2024-03-02T06:22:21;44.38;;;21.52;;
56343;SDS011;42245;42.058;24.700;2024-03-02T06:24:48;45.88;;;21.13;;
56343;SDS011;42245;42.058;24.700;2024-03-02T06:27:14;42.60;;;21.83;;
56343;SDS011;42245;42.058;24.700;2024-03-02T06:29:39;45.85;;;20.88;;
56343;SDS011;42245;42.058;24.700;2024-03-02T06:32:05;40.75;;;20.70;;
56343;SDS011;42245;42.058;24.700;2024-03-02T06:34:30;52.78;;;27.10;;
56343;SDS011;42245;42.058;24.700;2024-03-02T06:36:56;57.20;;;29.42;;
56343;SDS011;42245;42.058;24.700;2024-03-02T06:39:21;47.13;;;22.23;;
56343;SDS011;42245;42.058;24.700;2024-03-02T06:41:47;43.40;;;21.80;;
56343;SDS011;42245;42.058;24.700;2024-03-02T06:44:12;38.35;;;19.38;;
56343;SDS011;42245;42.058;24.700;2024-03-02T06:46:38;38.83;;;19.88;;
56343;SDS011;42245;42.058;24.700;2024-03-02T06:49:04;36.85;;;18.80;;
56343;SDS011;42245;42.058;24.700;2024-03-02T06:51:29;35.60;;;18.40;;
56343;SDS011;42245;42.058;24.700;2024-03-02T06:53:55;41.50;;;20.83;;
56343;SDS011;42245;42.058;24.700;2024-03-02T06:56:21;44.80;;;22.15;;
56343;SDS011;42245;42.058;24.700;2024-03-02T06:58:46;48.70;;;21.67;;
56343;SDS011;42245;42.058;24.700;2024-03-02T07:01:12;41.38;;;20.10;;
56343;SDS011;42245;42.058;24.700;2024-03-02T07:03:37;39.80;;;22.27;;
56343;SDS011;42245;42.058;24.700;2024-03-02T07:06:04;37.45;;;19.52;;
56343;SDS011;42245;42.058;24.700;2024-03-02T07:08:30;39.70;;;19.05;;
56343;SDS011;42245;42.058;24.700;2024-03-02T07:10:56;36.47;;;20.50;;
56343;SDS011;42245;42.058;24.700;2024-03-02T07:13:22;41.20;;;20.92;;
56343;SDS011;42245;42.058;24.700;2024-03-02T07:15:48;40.55;;;23.65;;
56343;SDS011;42245;42.058;24.700;2024-03-02T07:18:39;37.70;;;18.85;;
56343;SDS011;42245;42.058;24.700;2024-03-02T07:21:10;34.35;;;18.17;;
56343;SDS011;42245;42.058;24.700;2024-03-02T07:23:35;31.63;;;15.70;;
56343;SDS011;42245;42.058;24.700;2024-03-02T07:26:01;31.85;;;17.00;;
56343;SDS011;42245;42.058;24.700;2024-03-02T07:28:28;31.70;;;15.88;;
56343;SDS011;42245;42.058;24.700;2024-03-02T07:31:03;31.00;;;15.95;;
56343;SDS011;42245;42.058;24.700;2024-03-02T07:33:30;30.27;;;16.10;;
56343;SDS011;42245;42.058;24.700;2024-03-02T07:35:56;32.83;;;16.20;;
56343;SDS011;42245;42.058;24.700;2024-03-02T07:38:22;31.25;;;16.38;;
56343;SDS011;42245;42.058;24.700;2024-03-02T07:40:48;29.48;;;16.52;;
56343;SDS011;42245;42.058;24.700;2024-03-02T07:43:16;28.55;;;16.02;;
56343;SDS011;42245;42.058;24.700;2024-03-02T07:45:42;27.08;;;15.07;;
56343;SDS011;42245;42.058;24.700;2024-03-02T07:48:07;32.55;;;16.05;;
56343;SDS011;42245;42.058;24.700;2024-03-02T07:50:33;29.42;;;15.20;;
56343;SDS011;42245;42.058;24.700;2024-03-02T07:53:02;24.80;;;14.48;;
56343;SDS011;42245;42.058;24.700;2024-03-02T07:55:29;24.63;;;14.43;;
56343;SDS011;42245;42.058;24.700;2024-03-02T07:57:55;26.73;;;15.52;;
56343;SDS011;42245;42.058;24.700;2024-03-02T08:00:21;25.30;;;14.75;;
56343;SDS011;42245;42.058;24.700;2024-03-02T08:02:47;26.35;;;14.40;;
56343;SDS011;42245;42.058;24.700;2024-03-02T08:05:13;23.77;;;14.82;;
56343;SDS011;42245;42.058;24.700;2024-03-02T08:07:38;26.15;;;14.90;;
56343;SDS011;42245;42.058;24.700;2024-03-02T08:10:04;23.70;;;15.10;;
56343;SDS011;42245;42.058;24.700;2024-03-02T08:12:30;23.20;;;14.57;;
56343;SDS011;42245;42.058;24.700;2024-03-02T08:14:56;38.00;;;20.70;;
56343;SDS011;42245;42.058;24.700;2024-03-02T08:17:21;164.00;;;68.30;;
56343;SDS011;42245;42.058;24.700;2024-03-02T08:19:47;302.65;;;101.88;;
56343;SDS011;42245;42.058;24.700;2024-03-02T08:22:14;89.35;;;41.15;;
56343;SDS011;42245;42.058;24.700;2024-03-02T08:24:40;71.97;;;36.97;;
56343;SDS011;42245;42.058;24.700;2024-03-02T08:27:05;50.25;;;27.05;;
56343;SDS011;42245;42.058;24.700;2024-03-02T08:29:31;42.92;;;24.70;;
56343;SDS011;42245;42.058;24.700;2024-03-02T08:31:56;44.00;;;23.80;;
56343;SDS011;42245;42.058;24.700;2024-03-02T08:34:22;31.02;;;17.33;;
56343;SDS011;42245;42.058;24.700;2024-03-02T08:36:47;34.20;;;18.60;;
56343;SDS011;42245;42.058;24.700;2024-03-02T08:39:13;43.80;;;21.92;;
56343;SDS011;42245;42.058;24.700;2024-03-02T08:41:42;47.90;;;25.13;;
56343;SDS011;42245;42.058;24.700;2024-03-02T08:44:09;52.67;;;27.13;;
56343;SDS011;42245;42.058;24.700;2024-03-02T08:46:34;58.92;;;30.30;;
56343;SDS011;42245;42.058;24.700;2024-03-02T08:49:00;45.28;;;23.42;;
56343;SDS011;42245;42.058;24.700;2024-03-02T08:51:25;46.42;;;23.20;;
56343;SDS011;42245;42.058;24.700;2024-03-02T08:53:51;43.58;;;21.05;;
56343;SDS011;42245;42.058;24.700;2024-03-02T08:56:16;40.05;;;19.83;;
56343;SDS011;42245;42.058;24.700;2024-03-02T08:58:42;38.47;;;21.13;;
56343;SDS011;42245;42.058;24.700;2024-03-02T09:01:08;41.40;;;22.17;;
56343;SDS011;42245;42.058;24.700;2024-03-02T09:03:34;53.17;;;29.80;;
56343;SDS011;42245;42.058;24.700;2024-03-02T09:06:00;74.72;;;40.60;;
56343;SDS011;42245;42.058;24.700;2024-03-02T09:08:26;88.63;;;48.72;;
56343;SDS011;42245;42.058;24.700;2024-03-02T09:10:51;64.28;;;37.03;;
56343;SDS011;42245;42.058;24.700;2024-03-02T09:13:17;52.10;;;28.98;;
56343;SDS011;42245;42.058;24.700;2024-03-02T09:15:42;54.67;;;28.35;;
56343;SDS011;42245;42.058;24.700;2024-03-02T09:18:09;60.25;;;29.35;;
56343;SDS011;42245;42.058;24.700;2024-03-02T09:20:35;47.72;;;23.50;;
56343;SDS011;42245;42.058;24.700;2024-03-02T09:23:00;43.63;;;23.35;;
56343;SDS011;42245;42.058;24.700;2024-03-02T09:25:26;45.33;;;24.20;;
56343;SDS011;42245;42.058;24.700;2024-03-02T09:27:51;36.97;;;20.65;;
56343;SDS011;42245;42.058;24.700;2024-03-02T09:30:17;48.38;;;25.45;;
56343;SDS011;42245;42.058;24.700;2024-03-02T09:32:42;50.10;;;26.58;;
56343;SDS011;42245;42.058;24.700;2024-03-02T09:35:08;56.70;;;28.45;;
56343;SDS011;42245;42.058;24.700;2024-03-02T09:37:34;82.68;;;38.28;;
56343;SDS011;42245;42.058;24.700;2024-03-02T09:40:00;54.50;;;28.08;;
56343;SDS011;42245;42.058;24.700;2024-03-02T09:42:26;61.55;;;34.38;;
56343;SDS011;42245;42.058;24.700;2024-03-02T09:44:52;64.15;;;34.53;;
56343;SDS011;42245;42.058;24.700;2024-03-02T09:47:18;61.85;;;31.80;;
56343;SDS011;42245;42.058;24.700;2024-03-02T09:49:43;54.83;;;29.48;;
56343;SDS011;42245;42.058;24.700;2024-03-02T09:52:09;47.88;;;25.65;;
56343;SDS011;42245;42.058;24.700;2024-03-02T09:54:35;51.45;;;27.20;;
56343;SDS011;42245;42.058;24.700;2024-03-02T09:57:01;48.78;;;26.10;;
56343;SDS011;42245;42.058;24.700;2024-03-02T09:59:27;51.10;;;25.50;;
56343;SDS011;42245;42.058;24.700;2024-03-02T10:02:03;44.47;;;22.80;;
56343;SDS011;42245;42.058;24.700;2024-03-02T10:04:29;40.38;;;21.80;;
56343;SDS011;42245;42.058;24.700;2024-03-02T10:07:20;43.70;;;24.70;;
56343;SDS011;42245;42.058;24.700;2024-03-02T10:09:45;37.58;;;22.35;;
56343;SDS011;42245;42.058;24.700;2024-03-02T10:12:12;41.55;;;22.73;;
56343;SDS011;42245;42.058;24.700;2024-03-02T10:14:39;40.17;;;22.48;;
56343;SDS011;42245;42.058;24.700;2024-03-02T10:17:08;42.40;;;23.88;;
56343;SDS011;42245;42.058;24.700;2024-03-02T10:19:35;33.75;;;19.65;;
56343;SDS011;42245;42.058;24.700;2024-03-02T10:22:05;34.63;;;21.23;;
56343;SDS011;42245;42.058;24.700;2024-03-02T10:24:38;32.15;;;19.30;;
56343;SDS011;42245;42.058;24.700;2024-03-02T10:27:10;39.17;;;22.20;;
56343;SDS011;42245;42.058;24.700;2024-03-02T10:29:42;36.45;;;20.77;;
56343;SDS011;42245;42.058;24.700;2024-03-02T10:32:11;35.30;;;21.17;;
56343;SDS011;42245;42.058;24.700;2024-03-02T10:34:38;36.53;;;21.75;;
56343;SDS011;42245;42.058;24.700;2024-03-02T10:37:05;34.72;;;20.55;;
56343;SDS011;42245;42.058;24.700;2024-03-02T10:39:32;38.78;;;22.80;;
56343;SDS011;42245;42.058;24.700;2024-03-02T10:42:00;36.92;;;21.85;;
56343;SDS011;42245;42.058;24.700;2024-03-02T10:44:28;41.65;;;24.88;;
56343;SDS011;42245;42.058;24.700;2024-03-02T10:52:13;39.20;;;23.02;;
56343;SDS011;42245;42.058;24.700;2024-03-02T10:54:39;30.98;;;19.15;;
56343;SDS011;42245;42.058;24.700;2024-03-02T10:57:05;39.47;;;24.17;;
56343;SDS011;42245;42.058;24.700;2024-03-02T10:59:35;39.40;;;24.40;;
56343;SDS011;42245;42.058;24.700;2024-03-02T11:02:02;40.67;;;25.10;;
56343;SDS011;42245;42.058;24.700;2024-03-02T11:04:29;39.10;;;24.33;;
56343;SDS011;42245;42.058;24.700;2024-03-02T11:06:59;27.38;;;18.58;;
56343;SDS011;42245;42.058;24.700;2024-03-02T11:09:27;33.13;;;21.58;;
56343;SDS011;42245;42.058;24.700;2024-03-02T11:12:19;34.20;;;21.33;;
56343;SDS011;42245;42.058;24.700;2024-03-02T11:14:45;40.72;;;25.58;;
56343;SDS011;42245;42.058;24.700;2024-03-02T11:17:11;37.20;;;23.30;;
56343;SDS011;42245;42.058;24.700;2024-03-02T11:19:40;39.97;;;23.88;;
56343;SDS011;42245;42.058;24.700;2024-03-02T11:22:06;47.58;;;24.77;;
56343;SDS011;42245;42.058;24.700;2024-03-02T11:24:33;40.92;;;24.70;;
56343;SDS011;42245;42.058;24.700;2024-03-02T11:27:00;43.47;;;25.35;;
56343;SDS011;42245;42.058;24.700;2024-03-02T11:32:01;42.28;;;24.63;;
56343;SDS011;42245;42.058;24.700;2024-03-02T11:34:28;42.70;;;24.92;;
56343;SDS011;42245;42.058;24.700;2024-03-02T11:36:58;45.63;;;27.05;;
56343;SDS011;42245;42.058;24.700;2024-03-02T11:39:26;39.50;;;24.38;;
56343;SDS011;42245;42.058;24.700;2024-03-02T11:41:52;40.42;;;24.10;;
56343;SDS011;42245;42.058;24.700;2024-03-02T11:44:18;33.25;;;20.65;;
56343;SDS011;42245;42.058;24.700;2024-03-02T11:46:59;40.22;;;23.75;;
56343;SDS011;42245;42.058;24.700;2024-03-02T11:49:38;40.88;;;23.65;;
56343;SDS011;42245;42.058;24.700;2024-03-02T11:52:08;30.48;;;19.45;;
56343;SDS011;42245;42.058;24.700;2024-03-02T11:54:36;36.03;;;22.95;;
56343;SDS011;42245;42.058;24.700;2024-03-02T11:57:05;36.67;;;22.90;;
56343;SDS011;42245;42.058;24.700;2024-03-02T11:59:34;45.08;;;27.30;;
56343;SDS011;42245;42.058;24.700;2024-03-02T12:01:59;42.67;;;24.25;;
56343;SDS011;42245;42.058;24.700;2024-03-02T12:04:25;40.75;;;25.15;;
56343;SDS011;42245;42.058;24.700;2024-03-02T12:06:58;32.08;;;20.67;;
56343;SDS011;42245;42.058;24.700;2024-03-02T12:09:25;34.10;;;21.98;;
56343;SDS011;42245;42.058;24.700;2024-03-02T12:14:29;30.23;;;20.98;;
56343;SDS011;42245;42.058;24.700;2024-03-02T12:16:55;29.38;;;19.45;;
56343;SDS011;42245;42.058;24.700;2024-03-02T12:19:21;28.13;;;18.75;;
56343;SDS011;42245;42.058;24.700;2024-03-02T12:21:46;27.13;;;17.58;;
56343;SDS011;42245;42.058;24.700;2024-03-02T12:24:12;26.98;;;17.50;;
56343;SDS011;42245;42.058;24.700;2024-03-02T12:26:38;25.73;;;16.17;;
56343;SDS011;42245;42.058;24.700;2024-03-02T12:29:03;29.70;;;18.35;;
56343;SDS011;42245;42.058;24.700;2024-03-02T12:31:29;31.02;;;18.17;;
56343;SDS011;42245;42.058;24.700;2024-03-02T12:33:55;24.40;;;15.93;;
56343;SDS011;42245;42.058;24.700;2024-03-02T12:36:20;25.83;;;16.77;;
56343;SDS011;42245;42.058;24.700;2024-03-02T12:38:46;23.08;;;15.68;;
56343;SDS011;42245;42.058;24.700;2024-03-02T12:41:14;20.95;;;14.57;;
56343;SDS011;42245;42.058;24.700;2024-03-02T12:43:40;21.30;;;13.63;;
56343;SDS011;42245;42.058;24.700;2024-03-02T12:46:06;19.05;;;13.25;;
56343;SDS011;42245;42.058;24.700;2024-03-02T12:48:31;17.65;;;12.05;;
56343;SDS011;42245;42.058;24.700;2024-03-02T12:50:58;16.17;;;11.00;;
56343;SDS011;42245;42.058;24.700;2024-03-02T12:53:23;16.50;;;11.40;;
56343;SDS011;42245;42.058;24.700;2024-03-02T12:55:49;14.93;;;10.43;;
56343;SDS011;42245;42.058;24.700;2024-03-02T12:58:19;15.00;;;10.73;;
56343;SDS011;42245;42.058;24.700;2024-03-02T13:00:46;13.88;;;9.40;;
56343;SDS011;42245;42.058;24.700;2024-03-02T13:03:12;15.10;;;10.15;;
56343;SDS011;42245;42.058;24.700;2024-03-02T13:05:38;14.05;;;10.13;;
56343;SDS011;42245;42.058;24.700;2024-03-02T13:08:04;14.55;;;10.68;;
56343;SDS011;42245;42.058;24.700;2024-03-02T13:10:32;14.50;;;10.27;;
56343;SDS011;42245;42.058;24.700;2024-03-02T13:12:58;13.80;;;9.88;;
56343;SDS011;42245;42.058;24.700;2024-03-02T13:15:23;13.93;;;9.93;;
56343;SDS011;42245;42.058;24.700;2024-03-02T13:17:50;13.40;;;9.57;;
56343;SDS011;42245;42.058;24.700;2024-03-02T13:20:16;13.90;;;9.65;;
56343;SDS011;42245;42.058;24.700;2024-03-02T13:22:43;15.73;;;9.82;;
56343;SDS011;42245;42.058;24.700;2024-03-02T13:25:08;13.23;;;9.75;;
56343;SDS011;42245;42.058;24.700;2024-03-02T13:27:35;12.57;;;9.80;;
56343;SDS011;42245;42.058;24.700;2024-03-02T13:30:02;12.50;;;9.38;;
56343;SDS011;42245;42.058;24.700;2024-03-02T13:32:30;13.57;;;9.75;;
56343;SDS011;42245;42.058;24.700;2024-03-02T13:34:56;15.68;;;11.70;;
56343;SDS011;42245;42.058;24.700;2024-03-02T13:37:21;17.67;;;12.73;;
56343;SDS011;42245;42.058;24.700;2024-03-02T13:39:47;23.25;;;16.20;;
56343;SDS011;42245;42.058;24.700;2024-03-02T13:42:13;16.38;;;12.27;;
56343;SDS011;42245;42.058;24.700;2024-03-02T13:44:40;14.73;;;11.95;;
56343;SDS011;42245;42.058;24.700;2024-03-02T13:47:06;17.92;;;13.05;;
56343;SDS011;42245;42.058;24.700;2024-03-02T13:49:32;21.92;;;14.80;;
56343;SDS011;42245;42.058;24.700;2024-03-02T13:52:08;28.33;;;18.30;;
56343;SDS011;42245;42.058;24.700;2024-03-02T13:54:41;21.92;;;15.90;;
56343;SDS011;42245;42.058;24.700;2024-03-02T13:57:10;26.92;;;17.80;;
56343;SDS011;42245;42.058;24.700;2024-03-02T13:59:36;27.23;;;17.73;;
56343;SDS011;42245;42.058;24.700;2024-03-02T14:02:02;24.35;;;16.27;;
56343;SDS011;42245;42.058;24.700;2024-03-02T14:04:31;24.67;;;17.45;;
56343;SDS011;42245;42.058;24.700;2024-03-02T14:07:00;24.42;;;17.00;;
56343;SDS011;42245;42.058;24.700;2024-03-02T14:09:26;42.13;;;24.95;;
56343;SDS011;42245;42.058;24.700;2024-03-02T14:11:52;27.17;;;17.77;;
56343;SDS011;42245;42.058;24.700;2024-03-02T14:14:21;22.02;;;15.85;;
56343;SDS011;42245;42.058;24.700;2024-03-02T14:16:46;27.92;;;19.17;;
56343;SDS011;42245;42.058;24.700;2024-03-02T14:19:12;30.75;;;20.15;;
56343;SDS011;42245;42.058;24.700;2024-03-02T14:21:38;28.77;;;19.48;;
56343;SDS011;42245;42.058;24.700;2024-03-02T14:24:04;35.53;;;22.02;;
56343;SDS011;42245;42.058;24.700;2024-03-02T14:26:32;32.78;;;22.17;;
56343;SDS011;42245;42.058;24.700;2024-03-02T14:28:58;32.22;;;20.08;;
56343;SDS011;42245;42.058;24.700;2024-03-02T14:31:24;42.65;;;23.30;;
56343;SDS011;42245;42.058;24.700;2024-03-02T14:33:49;24.38;;;16.05;;
56343;SDS011;42245;42.058;24.700;2024-03-02T14:36:15;12.57;;;9.43;;
56343;SDS011;42245;42.058;24.700;2024-03-02T14:38:41;11.40;;;8.35;;
56343;SDS011;42245;42.058;24.700;2024-03-02T14:41:06;10.15;;;7.93;;
56343;SDS011;42245;42.058;24.700;2024-03-02T14:43:32;10.35;;;8.20;;
56343;SDS011;42245;42.058;24.700;2024-03-02T14:45:57;11.27;;;7.60;;
56343;SDS011;42245;42.058;24.700;2024-03-02T14:48:24;9.80;;;7.40;;
56343;SDS011;42245;42.058;24.700;2024-03-02T14:50:49;9.27;;;7.57;;
56343;SDS011;42245;42.058;24.700;2024-03-02T14:53:16;10.18;;;7.05;;
56343;SDS011;42245;42.058;24.700;2024-03-02T14:55:41;9.70;;;6.82;;
56343;SDS011;42245;42.058;24.700;2024-03-02T14:58:07;9.85;;;7.72;;
56343;SDS011;42245;42.058;24.700;2024-03-02T15:00:33;9.90;;;7.70;;
56343;SDS011;42245;42.058;24.700;2024-03-02T15:02:59;9.65;;;7.25;;
56343;SDS011;42245;42.058;24.700;2024-03-02T15:05:24;9.20;;;7.47;;
56343;SDS011;42245;42.058;24.700;2024-03-02T15:07:50;11.85;;;8.15;;
56343;SDS011;42245;42.058;24.700;2024-03-02T15:10:16;9.20;;;7.50;;
56343;SDS011;42245;42.058;24.700;2024-03-02T15:12:42;9.43;;;7.50;;
56343;SDS011;42245;42.058;24.700;2024-03-02T15:15:07;8.90;;;7.25;;
56343;SDS011;42245;42.058;24.700;2024-03-02T15:17:35;10.27;;;7.03;;
56343;SDS011;42245;42.058;24.700;2024-03-02T15:20:01;7.00;;;6.13;;
56343;SDS011;42245;42.058;24.700;2024-03-02T15:22:26;9.02;;;6.45;;
56343;SDS011;42245;42.058;24.700;2024-03-02T15:24:52;8.27;;;6.82;;
56343;SDS011;42245;42.058;24.700;2024-03-02T15:27:19;9.07;;;6.80;;
56343;SDS011;42245;42.058;24.700;2024-03-02T15:29:44;9.75;;;6.93;;
56343;SDS011;42245;42.058;24.700;2024-03-02T15:32:09;8.38;;;6.40;;
56343;SDS011;42245;42.058;24.700;2024-03-02T15:34:35;11.38;;;7.00;;
56343;SDS011;42245;42.058;24.700;2024-03-02T15:37:01;8.48;;;6.75;;
56343;SDS011;42245;42.058;24.700;2024-03-02T15:39:26;8.77;;;6.70;;
56343;SDS011;42245;42.058;24.700;2024-03-02T15:41:52;10.90;;;7.30;;
56343;SDS011;42245;42.058;24.700;2024-03-02T15:44:17;9.70;;;7.20;;
56343;SDS011;42245;42.058;24.700;2024-03-02T15:46:43;9.43;;;7.25;;
56343;SDS011;42245;42.058;24.700;2024-03-02T15:49:08;8.38;;;6.40;;
56343;SDS011;42245;42.058;24.700;2024-03-02T15:51:34;11.43;;;8.57;;
56343;SDS011;42245;42.058;24.700;2024-03-02T15:54:02;9.95;;;7.43;;
56343;SDS011;42245;42.058;24.700;2024-03-02T15:56:29;8.43;;;7.05;;
56343;SDS011;42245;42.058;24.700;2024-03-02T15:58:55;12.75;;;7.60;;
56343;SDS011;42245;42.058;24.700;2024-03-02T16:01:20;10.48;;;7.63;;
56343;SDS011;42245;42.058;24.700;2024-03-02T16:03:46;9.27;;;6.90;;
56343;SDS011;42245;42.058;24.700;2024-03-02T16:06:12;9.68;;;7.43;;
56343;SDS011;42245;42.058;24.700;2024-03-02T16:08:37;10.00;;;7.75;;
56343;SDS011;42245;42.058;24.700;2024-03-02T16:11:03;12.55;;;7.20;;
56343;SDS011;42245;42.058;24.700;2024-03-02T16:13:29;12.43;;;7.68;;
56343;SDS011;42245;42.058;24.700;2024-03-02T16:15:56;9.40;;;7.38;;
56343;SDS011;42245;42.058;24.700;2024-03-02T16:18:21;10.98;;;7.72;;
56343;SDS011;42245;42.058;24.700;2024-03-02T16:20:47;9.60;;;7.50;;
56343;SDS011;42245;42.058;24.700;2024-03-02T16:23:12;11.25;;;7.50;;
56343;SDS011;42245;42.058;24.700;2024-03-02T16:25:37;12.02;;;8.13;;
56343;SDS011;42245;42.058;24.700;2024-03-02T16:28:06;10.82;;;7.90;;
56343;SDS011;42245;42.058;24.700;2024-03-02T16:30:31;10.32;;;7.97;;
56343;SDS011;42245;42.058;24.700;2024-03-02T16:32:57;13.30;;;7.82;;
56343;SDS011;42245;42.058;24.700;2024-03-02T16:35:23;12.23;;;8.00;;
56343;SDS011;42245;42.058;24.700;2024-03-02T16:37:49;14.05;;;8.27;;
56343;SDS011;42245;42.058;24.700;2024-03-02T16:40:14;11.90;;;8.18;;
56343;SDS011;42245;42.058;24.700;2024-03-02T16:42:40;14.65;;;8.25;;
56343;SDS011;42245;42.058;24.700;2024-03-02T16:45:05;10.23;;;7.80;;
56343;SDS011;42245;42.058;24.700;2024-03-02T16:47:32;12.60;;;8.45;;
56343;SDS011;42245;42.058;24.700;2024-03-02T16:49:57;11.88;;;8.13;;
56343;SDS011;42245;42.058;24.700;2024-03-02T16:52:26;12.50;;;7.82;;
56343;SDS011;42245;42.058;24.700;2024-03-02T16:54:55;11.38;;;7.95;;
56343;SDS011;42245;42.058;24.700;2024-03-02T16:57:20;10.13;;;7.32;;
56343;SDS011;42245;42.058;24.700;2024-03-02T16:59:46;12.27;;;7.97;;
56343;SDS011;42245;42.058;24.700;2024-03-02T17:02:12;11.93;;;7.95;;
56343;SDS011;42245;42.058;24.700;2024-03-02T17:04:38;12.57;;;8.38;;
56343;SDS011;42245;42.058;24.700;2024-03-02T17:07:04;12.32;;;8.30;;
56343;SDS011;42245;42.058;24.700;2024-03-02T17:09:30;11.63;;;7.57;;
56343;SDS011;42245;42.058;24.700;2024-03-02T17:11:56;10.68;;;8.05;;
56343;SDS011;42245;42.058;24.700;2024-03-02T17:14:22;11.45;;;8.52;;
56343;SDS011;42245;42.058;24.700;2024-03-02T17:16:47;10.82;;;7.95;;
56343;SDS011;42245;42.058;24.700;2024-03-02T17:19:15;9.95;;;7.18;;
56343;SDS011;42245;42.058;24.700;2024-03-02T17:21:40;12.27;;;7.60;;
56343;SDS011;42245;42.058;24.700;2024-03-02T17:24:06;12.05;;;7.80;;
56343;SDS011;42245;42.058;24.700;2024-03-02T17:26:31;11.70;;;8.45;;
56343;SDS011;42245;42.058;24.700;2024-03-02T17:28:57;11.65;;;8.57;;
56343;SDS011;42245;42.058;24.700;2024-03-02T17:31:22;12.43;;;8.43;;
56343;SDS011;42245;42.058;24.700;2024-03-02T17:33:48;11.90;;;8.95;;
56343;SDS011;42245;42.058;24.700;2024-03-02T17:36:13;14.07;;;8.57;;
56343;SDS011;42245;42.058;24.700;2024-03-02T17:38:40;11.13;;;8.50;;
56343;SDS011;42245;42.058;24.700;2024-03-02T17:41:06;11.98;;;8.90;;
56343;SDS011;42245;42.058;24.700;2024-03-02T17:43:33;11.88;;;8.93;;
56343;SDS011;42245;42.058;24.700;2024-03-02T17:46:04;14.20;;;8.85;;
56343;SDS011;42245;42.058;24.700;2024-03-02T17:48:30;13.60;;;8.70;;
56343;SDS011;42245;42.058;24.700;2024-03-02T17:50:55;15.50;;;9.07;;
56343;SDS011;42245;42.058;24.700;2024-03-02T17:53:21;11.75;;;8.27;;
56343;SDS011;42245;42.058;24.700;2024-03-02T17:55:46;13.40;;;8.50;;
56343;SDS011;42245;42.058;24.700;2024-03-02T17:58:12;11.73;;;8.18;;
56343;SDS011;42245;42.058;24.700;2024-03-02T18:00:37;10.98;;;8.60;;
56343;SDS011;42245;42.058;24.700;2024-03-02T18:03:03;12.57;;;8.23;;
56343;SDS011;42245;42.058;24.700;2024-03-02T18:05:30;12.63;;;9.10;;
56343;SDS011;42245;42.058;24.700;2024-03-02T18:07:56;14.18;;;9.80;;
56343;SDS011;42245;42.058;24.700;2024-03-02T18:10:21;14.77;;;8.50;;
56343;SDS011;42245;42.058;24.700;2024-03-02T18:12:47;12.48;;;8.85;;
56343;SDS011;42245;42.058;24.700;2024-03-02T18:15:12;11.60;;;8.60;;
56343;SDS011;42245;42.058;24.700;2024-03-02T18:17:38;11.88;;;8.73;;
56343;SDS011;42245;42.058;24.700;2024-03-02T18:20:03;15.90;;;8.38;;
56343;SDS011;42245;42.058;24.700;2024-03-02T18:22:30;14.38;;;8.52;;
56343;SDS011;42245;42.058;24.700;2024-03-02T18:24:56;11.88;;;8.60;;
56343;SDS011;42245;42.058;24.700;2024-03-02T18:27:21;11.25;;;8.38;;
56343;SDS011;42245;42.058;24.700;2024-03-02T18:29:47;10.90;;;8.13;;
56343;SDS011;42245;42.058;24.700;2024-03-02T18:32:12;16.33;;;8.57;;
56343;SDS011;42245;42.058;24.700;2024-03-02T18:34:37;12.90;;;8.68;;
56343;SDS011;42245;42.058;24.700;2024-03-02T18:37:03;13.02;;;8.75;;
56343;SDS011;42245;42.058;24.700;2024-03-02T18:39:29;14.43;;;8.48;;
56343;SDS011;42245;42.058;24.700;2024-03-02T18:41:55;12.15;;;8.50;;
56343;SDS011;42245;42.058;24.700;2024-03-02T18:44:20;11.80;;;8.63;;
56343;SDS011;42245;42.058;24.700;2024-03-02T18:46:46;12.00;;;8.40;;
56343;SDS011;42245;42.058;24.700;2024-03-02T18:49:11;13.43;;;8.68;;
56343;SDS011;42245;42.058;24.700;2024-03-02T18:51:37;13.23;;;8.73;;
56343;SDS011;42245;42.058;24.700;2024-03-02T18:54:04;11.20;;;8.00;;
56343;SDS011;42245;42.058;24.700;2024-03-02T18:56:29;10.90;;;8.32;;
56343;SDS011;42245;42.058;24.700;2024-03-02T18:58:55;13.20;;;8.60;;
56343;SDS011;42245;42.058;24.700;2024-03-02T19:01:21;10.68;;;8.02;;
56343;SDS011;42245;42.058;24.700;2024-03-02T19:03:47;14.75;;;8.60;;
56343;SDS011;42245;42.058;24.700;2024-03-02T19:06:16;11.70;;;8.40;;
56343;SDS011;42245;42.058;24.700;2024-03-02T19:08:42;12.40;;;8.00;;
56343;SDS011;42245;42.058;24.700;2024-03-02T19:11:13;13.05;;;8.65;;
56343;SDS011;42245;42.058;24.700;2024-03-02T19:13:40;13.02;;;8.52;;
56343;SDS011;42245;42.058;24.700;2024-03-02T19:16:10;15.55;;;9.00;;
56343;SDS011;42245;42.058;24.700;2024-03-02T19:18:36;11.93;;;8.18;;
56343;SDS011;42245;42.058;24.700;2024-03-02T19:21:02;16.08;;;8.50;;
56343;SDS011;42245;42.058;24.700;2024-03-02T19:23:28;12.15;;;8.00;;
56343;SDS011;42245;42.058;24.700;2024-03-02T19:25:54;12.25;;;7.80;;
56343;SDS011;42245;42.058;24.700;2024-03-02T19:28:21;12.38;;;7.70;;
56343;SDS011;42245;42.058;24.700;2024-03-02T19:30:47;13.55;;;8.48;;
56343;SDS011;42245;42.058;24.700;2024-03-02T19:33:12;11.45;;;7.47;;
56343;SDS011;42245;42.058;24.700;2024-03-02T19:35:42;12.15;;;7.60;;
56343;SDS011;42245;42.058;24.700;2024-03-02T19:38:07;10.48;;;8.05;;
56343;SDS011;42245;42.058;24.700;2024-03-02T19:40:33;13.40;;;7.82;;
56343;SDS011;42245;42.058;24.700;2024-03-02T19:42:59;10.75;;;7.32;;
56343;SDS011;42245;42.058;24.700;2024-03-02T19:45:25;12.48;;;7.60;;
56343;SDS011;42245;42.058;24.700;2024-03-02T19:47:51;12.35;;;7.45;;
56343;SDS011;42245;42.058;24.700;2024-03-02T19:50:16;10.77;;;7.43;;
56343;SDS011;42245;42.058;24.700;2024-03-02T19:52:45;10.95;;;7.75;;
56343;SDS011;42245;42.058;24.700;2024-03-02T19:55:11;13.00;;;7.43;;
56343;SDS011;42245;42.058;24.700;2024-03-02T19:57:39;12.70;;;7.75;;
56343;SDS011;42245;42.058;24.700;2024-03-02T20:00:14;10.77;;;7.85;;
56343;SDS011;42245;42.058;24.700;2024-03-02T20:02:41;13.35;;;8.02;;
56343;SDS011;42245;42.058;24.700;2024-03-02T20:05:07;12.43;;;8.10;;
56343;SDS011;42245;42.058;24.700;2024-03-02T20:07:37;10.80;;;7.50;;
56343;SDS011;42245;42.058;24.700;2024-03-02T20:10:05;10.70;;;7.45;;
56343;SDS011;42245;42.058;24.700;2024-03-02T20:12:34;10.68;;;7.57;;